St Lucie County International Airport
KFPR : now visible

Airfield :











YOU CAN JOIN US ON...

 
LOGIN :

Register | Disclaimer

   EN    FR    IT 

 









Legend :    VFR   Marginal VFR   IFR   Intensive IFR   Very Intensive IFR
Visi :
Ceiling :
>= 8 km
>= 3000ft
5 to 8 km
1000 to 3000 ft
1500m to 5 km
500 to 1000 ft
800 to 1500m
200 to 500 ft
< 800m
< 200 ft
Symbols :   Thunderstorms  Fog  Heavy snow  Heavy precipitations  Wind > 20 kt






- Airport Elevation : 24 ft
- IATA code : FPR


KFPR - St Lucie County International

CURRENT METAR :
  • 241053Z AUTO 00000KT 10SM CLR 22/21 A2996 RMK AO2 SLP143 T02170206

EXPIRED METARs :
  • 240953Z AUTO 10004KT 10SM CLR 23/21 A2995 RMK AO2 SLP140 T02280211
  • 240853Z AUTO 09005KT 10SM CLR 23/21 A2994 RMK AO2 SLP137 T02330211 56007

TAF KFPR
Valid from the 24 at 12:00 until the 25 at 12:00 UTC


241124Z 2412/2512 09006KT P6SM FEW030 SCT100
FM241500 10008KT P6SM VCSH SCT025 SCT250
FM241800 09008KT P6SM VCTS SCT035CB SCT050
FM250000 10007KT P6SM VCSH SCT025 SCT100
KZMA FIR / North America



MET'MAP, your aeronautical weather chart ! - Copyright ORBIFLY December 2007 - Disclaimer

ORBIFLY MET'MAP TEAM :

Programming & Development : Alexandra Zaïnal
Concept & original design : Baudouin d'Aumeries
Assistance for programming : Marc-Olivier Méhu
Technical & hardware support : Manuel Goepfert

Contact : metmap@orbifly.com




SOURCES & CREDITS :

   NOAA       Earth
Advisory